createdAt,value
2022-12-12T00:00:47.144Z,3.08
2022-12-12T00:03:14.480Z,3.28
2022-12-12T00:05:42.351Z,3.30
2022-12-12T00:08:09.154Z,3.53
2022-12-12T00:10:37.538Z,3.35
2022-12-12T00:13:04.461Z,3.13
2022-12-12T00:15:31.319Z,3.58
2022-12-12T00:17:58.114Z,3.58
2022-12-12T00:20:24.828Z,3.40
2022-12-12T00:22:51.616Z,3.45
2022-12-12T00:25:18.415Z,3.40
2022-12-12T00:27:45.176Z,3.35
2022-12-12T00:30:12.242Z,3.53
2022-12-12T00:32:41.160Z,3.25
2022-12-12T00:35:08.152Z,3.30
2022-12-12T00:37:35.153Z,2.97
2022-12-12T00:40:02.172Z,2.95
2022-12-12T00:42:29.081Z,3.30
2022-12-12T00:44:55.895Z,3.50
2022-12-12T00:47:22.637Z,3.05
2022-12-12T00:49:49.449Z,3.30
2022-12-12T00:52:16.222Z,3.08
2022-12-12T00:54:43.014Z,3.60
2022-12-12T00:57:09.743Z,3.58
2022-12-12T00:59:36.466Z,3.28
2022-12-12T01:02:04.108Z,3.05
2022-12-12T01:04:30.993Z,2.95
2022-12-12T01:06:57.775Z,3.20
2022-12-12T01:09:24.528Z,3.08
2022-12-12T01:11:51.301Z,2.88
2022-12-12T01:14:19.849Z,3.47
2022-12-12T01:16:46.626Z,2.90
2022-12-12T01:19:13.885Z,3.10
2022-12-12T01:21:40.639Z,2.95
2022-12-12T01:24:07.446Z,2.92
2022-12-12T01:26:34.978Z,3.30
2022-12-12T01:29:02.133Z,2.90
2022-12-12T01:31:28.934Z,3.10
2022-12-12T01:33:56.138Z,2.90
2022-12-12T01:36:23.773Z,3.00
2022-12-12T01:38:52.642Z,2.80
2022-12-12T01:41:20.283Z,2.88
2022-12-12T01:43:47.456Z,2.88
2022-12-12T01:46:35.429Z,2.72
2022-12-12T01:49:05.996Z,2.97
2022-12-12T01:51:33.967Z,3.28
2022-12-12T01:54:19.724Z,3.22
2022-12-12T01:56:49.228Z,2.80
2022-12-12T01:59:19.083Z,3.20
2022-12-12T02:01:46.621Z,2.75
2022-12-12T02:04:13.955Z,2.75
2022-12-12T02:06:42.783Z,2.85
2022-12-12T02:09:12.399Z,2.70
2022-12-12T02:11:49.091Z,2.88
2022-12-12T02:14:23.379Z,2.78
2022-12-12T02:17:01.615Z,2.70
2022-12-12T02:20:01.075Z,2.65
2022-12-12T02:22:42.882Z,2.67
2022-12-12T02:25:31.617Z,2.80
2022-12-12T02:28:27.967Z,2.80
2022-12-12T02:31:22.422Z,2.65
2022-12-12T02:34:04.209Z,2.72
2022-12-12T02:37:05.390Z,2.67
2022-12-12T02:39:42.283Z,2.63
2022-12-12T02:42:35.942Z,2.60
2022-12-12T02:45:18.445Z,2.58
2022-12-12T02:47:54.620Z,2.65
2022-12-12T02:50:26.066Z,2.60
2022-12-12T02:52:52.955Z,2.60
2022-12-12T02:55:20.945Z,2.80
2022-12-12T02:57:49.445Z,2.65
2022-12-12T03:00:19.360Z,2.92
2022-12-12T03:03:41.806Z,2.35
2022-12-12T03:07:14.422Z,2.78
2022-12-12T03:10:07.445Z,2.60
2022-12-12T03:12:50.255Z,2.60
2022-12-12T03:15:38.226Z,2.42
2022-12-12T03:18:31.555Z,2.78
2022-12-12T03:21:16.506Z,2.53
2022-12-12T03:23:47.405Z,2.35
2022-12-12T03:26:25.333Z,2.50
2022-12-12T03:31:30.061Z,2.85
2022-12-12T03:34:03.100Z,2.55
2022-12-12T03:36:37.324Z,2.47
2022-12-12T03:39:13.685Z,2.30
2022-12-12T03:41:48.499Z,2.60
2022-12-12T03:44:21.843Z,2.47
2022-12-12T03:47:05.084Z,2.60
2022-12-12T03:49:45.344Z,2.10
2022-12-12T03:52:21.474Z,2.53
2022-12-12T03:54:57.074Z,2.53
2022-12-12T03:57:32.043Z,2.42
2022-12-12T04:00:05.868Z,2.30
2022-12-12T04:02:51.875Z,2.30
2022-12-12T04:06:03.541Z,2.20
2022-12-12T04:08:31.035Z,2.33
2022-12-12T04:11:24.385Z,2.00
2022-12-12T04:14:19.003Z,2.28
2022-12-12T04:16:49.486Z,2.35
2022-12-12T04:19:51.562Z,2.40
2022-12-12T04:22:41.418Z,2.38
2022-12-12T04:25:18.952Z,2.38
2022-12-12T04:27:51.237Z,2.30
2022-12-12T04:30:18.299Z,2.45
2022-12-12T04:33:10.267Z,2.30
2022-12-12T04:35:45.459Z,2.30
2022-12-12T04:38:21.864Z,2.17
2022-12-12T04:40:53.886Z,2.40
2022-12-12T04:43:35.925Z,2.30
2022-12-12T04:46:07.338Z,2.10
2022-12-12T04:48:44.073Z,2.17
2022-12-12T04:51:16.531Z,2.20
2022-12-12T04:53:49.873Z,2.33
2022-12-12T04:56:23.432Z,2.25
2022-12-12T04:58:50.351Z,2.30
2022-12-12T05:01:32.224Z,2.17
2022-12-12T05:04:03.279Z,2.42
2022-12-12T05:06:40.532Z,2.10
2022-12-12T05:09:11.752Z,2.30
2022-12-12T05:11:38.622Z,1.88
2022-12-12T05:14:09.433Z,2.10
2022-12-12T05:16:47.199Z,2.00
2022-12-12T05:19:14.044Z,2.15
2022-12-12T05:21:40.966Z,2.35
2022-12-12T05:24:07.858Z,2.20
2022-12-12T05:26:35.733Z,2.28
2022-12-12T05:29:07.176Z,2.10
2022-12-12T05:31:34.531Z,1.92
2022-12-12T05:34:01.304Z,2.17
2022-12-12T05:36:28.126Z,2.10
2022-12-12T05:38:54.958Z,1.98
2022-12-12T05:41:21.944Z,2.25
2022-12-12T05:43:48.718Z,2.00
2022-12-12T05:46:16.031Z,1.95
2022-12-12T05:48:43.108Z,2.10
2022-12-12T05:51:10.389Z,2.25
2022-12-12T05:53:42.768Z,2.23
2022-12-12T05:56:11.566Z,2.33
2022-12-12T05:58:39.645Z,2.35
2022-12-12T06:01:07.972Z,2.78
2022-12-12T06:03:34.976Z,2.75
2022-12-12T06:06:01.793Z,3.00
2022-12-12T06:08:28.794Z,2.60
2022-12-12T06:10:55.626Z,2.90
2022-12-12T06:13:22.340Z,3.00
2022-12-12T06:15:49.161Z,3.03
2022-12-12T06:18:15.979Z,2.83
2022-12-12T06:20:42.765Z,2.88
2022-12-12T06:23:09.556Z,3.00
2022-12-12T06:25:36.364Z,2.85
2022-12-12T06:28:03.204Z,3.10
2022-12-12T06:30:29.889Z,2.97
2022-12-12T06:32:56.701Z,2.88
2022-12-12T06:35:23.674Z,2.85
2022-12-12T06:37:50.388Z,2.83
2022-12-12T06:40:17.268Z,2.67
2022-12-12T06:42:48.288Z,2.75
2022-12-12T06:45:16.333Z,3.03
2022-12-12T06:47:43.799Z,2.88
2022-12-12T06:50:11.358Z,2.97
2022-12-12T06:52:38.439Z,3.00
2022-12-12T06:55:05.910Z,3.08
2022-12-12T06:57:33.143Z,3.92
2022-12-12T06:59:59.904Z,4.37
2022-12-12T07:02:29.951Z,4.65
2022-12-12T07:04:58.419Z,5.35
2022-12-12T07:07:25.827Z,5.50
2022-12-12T07:09:53.057Z,6.97
2022-12-12T07:12:19.808Z,7.60
2022-12-12T07:14:47.141Z,7.32
2022-12-12T07:17:14.381Z,7.33
2022-12-12T07:19:41.127Z,7.20
2022-12-12T07:22:10.509Z,6.72
2022-12-12T07:24:38.245Z,9.43
2022-12-12T07:27:06.114Z,9.77
2022-12-12T07:29:33.040Z,10.15
2022-12-12T07:31:59.865Z,10.15
2022-12-12T07:34:32.517Z,9.80
2022-12-12T07:37:02.926Z,10.10
2022-12-12T07:39:34.211Z,9.43
2022-12-12T07:42:01.090Z,10.13
2022-12-12T07:44:27.836Z,11.35
2022-12-12T07:46:57.060Z,10.13
2022-12-12T07:49:23.931Z,10.07
2022-12-12T07:51:50.686Z,9.27
2022-12-12T07:54:18.060Z,8.15
2022-12-12T07:56:44.811Z,7.97
2022-12-12T07:59:12.026Z,7.70
2022-12-12T08:01:39.681Z,6.88
2022-12-12T08:04:06.969Z,6.50
2022-12-12T08:06:34.194Z,6.37
2022-12-12T08:09:01.384Z,6.30
2022-12-12T08:11:28.657Z,6.67
2022-12-12T08:13:55.395Z,6.33
2022-12-12T08:16:28.101Z,7.07
2022-12-12T08:18:57.343Z,6.25
2022-12-12T08:21:26.107Z,6.03
2022-12-12T08:24:00.192Z,6.15
2022-12-12T08:26:28.156Z,5.85
2022-12-12T08:28:56.718Z,5.50
2022-12-12T08:31:24.600Z,5.20
2022-12-12T08:33:51.426Z,6.10
2022-12-12T08:36:30.687Z,6.07
2022-12-12T08:39:07.320Z,5.18
2022-12-12T08:41:39.541Z,5.60
2022-12-12T08:44:07.790Z,6.13
2022-12-12T08:46:34.984Z,5.07
2022-12-12T08:49:01.864Z,5.23
2022-12-12T08:51:28.651Z,4.68
2022-12-12T08:53:55.535Z,5.15
2022-12-12T08:56:23.600Z,5.20
2022-12-12T08:58:51.370Z,4.90
2022-12-12T09:01:26.604Z,4.82
2022-12-12T09:03:55.726Z,4.53
2022-12-12T09:06:23.043Z,4.75
2022-12-12T09:08:52.404Z,4.87
2022-12-12T09:11:19.921Z,4.57
2022-12-12T09:13:46.695Z,4.20
2022-12-12T09:16:13.870Z,4.15
2022-12-12T09:18:48.231Z,4.60
2022-12-12T09:21:15.725Z,4.05
2022-12-12T09:23:42.488Z,4.20
2022-12-12T09:26:10.287Z,4.03
2022-12-12T09:28:37.278Z,4.85
2022-12-12T09:31:08.555Z,4.43
2022-12-12T09:33:38.698Z,4.60
2022-12-12T09:36:07.814Z,4.72
2022-12-12T09:38:35.737Z,4.07
2022-12-12T09:41:11.381Z,4.40
2022-12-12T09:43:56.837Z,4.50
2022-12-12T09:46:26.565Z,4.05
2022-12-12T09:49:02.599Z,4.60
2022-12-12T09:51:29.320Z,3.53
2022-12-12T09:53:56.357Z,3.15
2022-12-12T09:56:37.925Z,3.45
2022-12-12T09:59:41.826Z,3.55
2022-12-12T10:02:27.423Z,3.67
2022-12-12T10:05:17.571Z,3.70
2022-12-12T10:08:02.680Z,3.47
2022-12-12T10:10:36.447Z,3.50
2022-12-12T10:13:06.268Z,3.03
2022-12-12T10:15:38.796Z,3.33
2022-12-12T10:18:12.666Z,2.85
2022-12-12T10:20:51.158Z,3.35
2022-12-12T10:23:51.495Z,3.20
2022-12-12T10:26:25.351Z,3.30
2022-12-12T10:29:08.950Z,3.30
2022-12-12T10:32:17.246Z,3.25
2022-12-12T10:34:52.776Z,3.10
2022-12-12T10:37:22.762Z,2.90
2022-12-12T10:40:18.707Z,3.60
2022-12-12T10:42:57.466Z,3.13
2022-12-12T10:45:41.224Z,3.15
2022-12-12T10:48:08.500Z,3.13
2022-12-12T10:50:48.999Z,3.00
2022-12-12T10:53:15.858Z,2.95
2022-12-12T10:55:52.220Z,2.80
2022-12-12T10:58:19.243Z,3.40
2022-12-12T11:00:50.412Z,3.10
2022-12-12T11:03:28.678Z,3.95
2022-12-12T11:05:57.233Z,3.67
2022-12-12T11:08:28.722Z,2.95
2022-12-12T11:11:26.511Z,3.20
2022-12-12T11:16:27.991Z,2.92
2022-12-12T11:19:00.498Z,3.10
2022-12-12T11:21:28.908Z,3.03
2022-12-12T11:23:57.972Z,3.08
2022-12-12T11:26:28.100Z,2.92
2022-12-12T11:29:01.291Z,2.70
2022-12-12T11:31:32.401Z,2.97
2022-12-12T11:34:07.174Z,3.00
2022-12-12T11:36:38.187Z,2.97
2022-12-12T11:39:28.504Z,2.80
2022-12-12T11:42:18.313Z,3.30
2022-12-12T11:44:46.479Z,3.08
2022-12-12T11:47:18.953Z,3.10
2022-12-12T11:50:17.117Z,2.90
2022-12-12T11:52:47.343Z,2.83
2022-12-12T11:55:17.192Z,2.97
2022-12-12T11:58:01.857Z,2.80
2022-12-12T12:00:53.658Z,2.70
2022-12-12T12:03:42.777Z,2.80
2022-12-12T12:06:45.965Z,3.03
2022-12-12T12:09:12.633Z,2.90
2022-12-12T12:11:51.472Z,2.85
2022-12-12T12:14:30.455Z,3.13
2022-12-12T12:17:04.021Z,2.70
2022-12-12T12:20:02.840Z,2.72
2022-12-12T12:22:49.940Z,3.05
2022-12-12T12:25:23.925Z,2.78
2022-12-12T12:28:08.157Z,2.83
2022-12-12T12:31:13.317Z,2.80
2022-12-12T12:34:01.176Z,2.58
2022-12-12T12:39:18.932Z,2.60
2022-12-12T12:41:48.540Z,2.78
2022-12-12T12:44:49.795Z,2.78
2022-12-12T12:47:25.140Z,2.92
2022-12-12T12:50:01.860Z,2.70
2022-12-12T12:52:50.347Z,2.67
2022-12-12T12:55:21.802Z,2.50
2022-12-12T12:57:50.818Z,2.90
2022-12-12T13:00:22.307Z,2.78
2022-12-12T13:03:00.952Z,2.47
2022-12-12T13:05:45.343Z,2.85
2022-12-12T13:08:29.716Z,2.50
2022-12-12T13:11:42.324Z,2.92
2022-12-12T13:14:26.899Z,2.42
2022-12-12T13:16:58.505Z,2.63
2022-12-12T13:19:33.418Z,2.50
2022-12-12T13:22:22.032Z,2.53
2022-12-12T13:25:31.158Z,2.83
2022-12-12T13:28:00.493Z,2.55
2022-12-12T13:30:49.185Z,2.30
2022-12-12T13:33:42.872Z,2.42
2022-12-12T13:36:30.153Z,2.63
2022-12-12T13:39:00.462Z,2.45
2022-12-12T13:41:28.132Z,2.22
2022-12-12T13:43:59.503Z,2.50
2022-12-12T13:46:29.513Z,2.55
2022-12-12T13:49:34.355Z,2.45
2022-12-12T13:52:30.269Z,2.22
2022-12-12T13:55:16.056Z,2.38
2022-12-12T13:58:05.801Z,2.30
2022-12-12T14:00:37.405Z,2.80
2022-12-12T14:03:10.158Z,2.65
2022-12-12T14:05:45.741Z,2.53
2022-12-12T14:08:13.834Z,2.47
2022-12-12T14:13:22.350Z,2.47
2022-12-12T14:16:02.955Z,2.70
2022-12-12T14:18:55.778Z,2.60
2022-12-12T14:21:41.067Z,2.40
2022-12-12T14:24:33.143Z,2.28
2022-12-12T14:27:01.541Z,2.47
2022-12-12T14:29:29.635Z,2.53
2022-12-12T14:34:42.487Z,2.40
2022-12-12T14:37:15.347Z,2.35
2022-12-12T14:40:18.259Z,2.08
2022-12-12T14:43:20.469Z,2.42
2022-12-12T14:45:56.397Z,2.28
2022-12-12T14:48:31.480Z,2.40
2022-12-12T14:51:03.901Z,2.15
2022-12-12T14:53:49.879Z,2.22
2022-12-12T14:56:28.433Z,2.20
2022-12-12T14:59:06.370Z,2.28
2022-12-12T15:04:19.943Z,2.28
2022-12-12T15:06:57.713Z,2.15
2022-12-12T15:09:30.499Z,1.80
2022-12-12T15:12:14.936Z,2.28
2022-12-12T15:14:56.950Z,2.05
2022-12-12T15:17:23.758Z,2.20
2022-12-12T15:19:54.865Z,2.28
2022-12-12T15:22:29.809Z,2.15
2022-12-12T15:24:59.496Z,2.33
2022-12-12T15:27:31.735Z,2.28
2022-12-12T15:30:00.495Z,2.05
2022-12-12T15:32:28.112Z,2.00
2022-12-12T15:35:20.738Z,2.10
2022-12-12T15:38:12.108Z,2.28
2022-12-12T15:40:40.318Z,1.80
2022-12-12T15:43:15.818Z,2.00
2022-12-12T15:45:48.124Z,1.98
2022-12-12T15:48:16.910Z,2.10
2022-12-12T15:50:43.602Z,2.15
2022-12-12T15:53:40.862Z,2.15
2022-12-12T15:56:13.856Z,2.20
2022-12-12T15:58:42.289Z,1.98
2022-12-12T16:01:20.128Z,2.00
2022-12-12T16:04:01.769Z,2.83
2022-12-12T16:06:40.196Z,4.28
2022-12-12T16:09:24.294Z,3.70
2022-12-12T16:11:58.853Z,3.47
2022-12-12T16:14:42.239Z,3.00
2022-12-12T16:17:17.452Z,2.80
2022-12-12T16:20:01.505Z,2.45
2022-12-12T16:22:48.378Z,2.28
2022-12-12T16:25:21.363Z,2.90
2022-12-12T16:28:14.151Z,2.60
2022-12-12T16:30:42.815Z,2.22
2022-12-12T16:33:36.528Z,2.55
2022-12-12T16:36:06.546Z,2.30
2022-12-12T16:38:34.365Z,2.47
2022-12-12T16:41:05.093Z,1.98
2022-12-12T16:43:32.149Z,2.75
2022-12-12T16:45:59.183Z,2.47
2022-12-12T16:48:32.509Z,3.50
2022-12-12T16:51:03.996Z,3.60
2022-12-12T16:53:31.134Z,3.20
2022-12-12T16:55:58.383Z,2.60
2022-12-12T16:58:27.459Z,2.70
2022-12-12T17:00:55.185Z,2.65
2022-12-12T17:03:24.175Z,2.75
2022-12-12T17:05:52.580Z,2.63
2022-12-12T17:08:19.830Z,2.60
2022-12-12T17:10:50.485Z,2.30
2022-12-12T17:13:21.017Z,2.30
2022-12-12T17:15:47.779Z,2.30
2022-12-12T17:18:14.927Z,2.40
2022-12-12T17:20:42.139Z,2.58
2022-12-12T17:23:30.116Z,2.60
2022-12-12T17:26:03.384Z,2.22
2022-12-12T17:28:32.357Z,2.50
2022-12-12T17:33:26.311Z,2.40
2022-12-12T17:36:05.490Z,2.20
2022-12-12T17:38:33.140Z,2.45
2022-12-12T17:41:04.165Z,2.17
2022-12-12T17:43:30.957Z,2.47
2022-12-12T17:46:00.642Z,2.35
2022-12-12T17:48:30.256Z,2.25
2022-12-12T17:51:02.144Z,2.40
2022-12-12T17:53:36.690Z,2.45
2022-12-12T17:56:24.957Z,2.45
2022-12-12T17:58:54.363Z,2.60
2022-12-12T18:01:34.091Z,2.50
2022-12-12T18:04:03.249Z,2.58
2022-12-12T18:06:33.140Z,2.40
2022-12-12T18:09:00.795Z,2.28
2022-12-12T18:11:31.446Z,2.50
2022-12-12T18:14:02.061Z,2.42
2022-12-12T18:16:30.958Z,2.70
2022-12-12T18:18:58.478Z,2.50
2022-12-12T18:21:58.946Z,2.45
2022-12-12T18:24:16.690Z,2.50
2022-12-12T18:26:44.475Z,2.38
2022-12-12T18:29:13.332Z,2.50
2022-12-12T18:31:40.454Z,2.50
2022-12-12T18:34:07.364Z,2.25
2022-12-12T18:36:34.301Z,2.58
2022-12-12T18:39:03.978Z,2.60
2022-12-12T18:41:31.731Z,2.35
2022-12-12T18:44:03.017Z,2.55
2022-12-12T18:46:33.227Z,2.47
2022-12-12T18:49:03.248Z,2.50
2022-12-12T18:51:30.668Z,2.50
2022-12-12T18:54:02.226Z,2.92
2022-12-12T18:56:31.252Z,2.33
2022-12-12T18:59:00.830Z,2.85
2022-12-12T19:01:34.293Z,2.40
2022-12-12T19:04:07.325Z,2.50
2022-12-12T19:06:38.198Z,2.45
2022-12-12T19:09:06.749Z,2.50
2022-12-12T19:11:35.247Z,2.50
2022-12-12T19:14:02.406Z,2.60
2022-12-12T19:16:29.758Z,2.20
2022-12-12T19:18:56.503Z,2.40
2022-12-12T19:21:25.249Z,2.83
2022-12-12T19:23:52.298Z,2.50
2022-12-12T19:26:26.938Z,2.75
2022-12-12T19:29:20.799Z,2.72
2022-12-12T19:31:48.125Z,2.25
2022-12-12T19:34:16.172Z,2.45
2022-12-12T19:39:12.382Z,2.43
2022-12-12T19:41:39.848Z,2.70
2022-12-12T19:44:12.664Z,2.50
2022-12-12T19:46:43.692Z,2.42
2022-12-12T19:49:13.625Z,2.70
2022-12-12T19:51:41.009Z,2.70
2022-12-12T19:54:15.295Z,2.80
2022-12-12T19:56:42.744Z,2.58
2022-12-12T19:59:14.013Z,2.50
2022-12-12T20:01:43.377Z,2.20
2022-12-12T20:04:17.568Z,3.00
2022-12-12T20:06:46.020Z,2.78
2022-12-12T20:09:19.219Z,2.40
2022-12-12T20:11:46.688Z,2.53
2022-12-12T20:14:18.205Z,2.25
2022-12-12T20:16:45.390Z,2.55
2022-12-12T20:19:12.834Z,2.22
2022-12-12T20:24:31.472Z,2.40
2022-12-12T20:29:27.839Z,2.28
2022-12-12T20:31:54.818Z,2.13
2022-12-12T20:34:24.322Z,2.67
2022-12-12T20:36:51.737Z,2.38
2022-12-12T20:39:20.897Z,2.37
2022-12-12T20:41:49.551Z,2.45
2022-12-12T20:44:16.717Z,2.65
2022-12-12T20:46:46.138Z,2.80
2022-12-12T20:49:18.949Z,2.58
2022-12-12T20:51:55.756Z,2.50
2022-12-12T20:54:24.444Z,2.53
2022-12-12T20:56:52.042Z,2.63
2022-12-12T20:59:19.528Z,2.35
2022-12-12T21:01:47.365Z,2.70
2022-12-12T21:06:44.406Z,2.30
2022-12-12T21:09:16.257Z,2.58
2022-12-12T21:11:44.640Z,2.50
2022-12-12T21:14:11.391Z,2.83
2022-12-12T21:16:39.945Z,3.05
2022-12-12T21:19:11.754Z,2.88
2022-12-12T21:21:39.880Z,2.90
2022-12-12T21:26:34.754Z,2.70
2022-12-12T21:31:35.115Z,2.65
2022-12-12T21:34:02.173Z,2.75
2022-12-12T21:36:30.139Z,2.90
2022-12-12T21:38:59.108Z,2.50
2022-12-12T21:41:26.888Z,2.53
2022-12-12T21:43:55.696Z,2.50
2022-12-12T21:46:25.784Z,2.70
2022-12-12T21:49:12.232Z,2.80
2022-12-12T21:51:40.304Z,2.70
2022-12-12T21:54:08.167Z,2.90
2022-12-12T21:56:35.141Z,2.65
2022-12-12T21:59:03.351Z,3.08
2022-12-12T22:03:58.293Z,2.67
2022-12-12T22:06:27.029Z,2.70
2022-12-12T22:08:57.934Z,3.28
2022-12-12T22:11:40.907Z,3.35
2022-12-12T22:14:11.803Z,5.40
2022-12-12T22:16:39.277Z,6.40
2022-12-12T22:19:08.782Z,5.43
2022-12-12T22:21:36.570Z,4.90
2022-12-12T22:24:04.638Z,4.47
2022-12-12T22:29:04.530Z,4.25
2022-12-12T22:31:34.165Z,4.20
2022-12-12T22:34:07.222Z,4.03
2022-12-12T22:36:36.178Z,4.30
2022-12-12T22:39:07.765Z,4.10
2022-12-12T22:41:34.818Z,4.00
2022-12-12T22:44:04.311Z,4.13
2022-12-12T22:46:32.376Z,4.40
2022-12-12T22:54:00.294Z,4.32
2022-12-12T22:56:29.164Z,4.22
2022-12-12T22:58:55.912Z,4.15
2022-12-12T23:01:26.123Z,3.83
2022-12-12T23:03:54.193Z,4.53
2022-12-12T23:06:33.030Z,4.50
2022-12-12T23:09:09.197Z,4.10
2022-12-12T23:11:38.389Z,4.50
2022-12-12T23:14:08.304Z,4.25
2022-12-12T23:16:36.040Z,4.20
2022-12-12T23:19:04.869Z,4.32
2022-12-12T23:21:32.259Z,4.47
2022-12-12T23:23:59.124Z,4.57
2022-12-12T23:26:29.855Z,4.32
2022-12-12T23:29:00.173Z,4.53
2022-12-12T23:31:30.623Z,4.30
2022-12-12T23:34:01.042Z,4.65
2022-12-12T23:36:28.801Z,4.90
2022-12-12T23:38:57.524Z,4.45
2022-12-12T23:41:25.134Z,4.80
2022-12-12T23:43:52.415Z,4.43
2022-12-12T23:46:29.841Z,4.70
2022-12-12T23:49:02.303Z,5.05
2022-12-12T23:51:32.219Z,4.80
2022-12-12T23:53:59.985Z,4.80
2022-12-12T23:56:27.316Z,4.95
2022-12-12T23:58:58.003Z,4.85
